createdAt,value
2018-06-19T00:02:01.902Z,88.61
2018-06-19T00:05:06.242Z,89.33
2018-06-19T00:08:10.615Z,89.73
2018-06-19T00:11:15.120Z,89.45
2018-06-19T00:14:19.441Z,90.20
2018-06-19T00:17:23.718Z,90.48
2018-06-19T00:20:28.224Z,90.32
2018-06-19T00:23:32.648Z,89.73
2018-06-19T00:26:37.028Z,89.94
2018-06-19T00:29:41.447Z,89.62
2018-06-19T00:32:45.877Z,90.23
2018-06-19T00:35:50.295Z,90.14
2018-06-19T00:38:54.841Z,90.36
2018-06-19T00:41:59.113Z,90.76
2018-06-19T00:45:03.442Z,90.45
2018-06-19T00:48:08.562Z,90.43
2018-06-19T00:51:12.899Z,90.69
2018-06-19T00:54:17.292Z,90.81
2018-06-19T00:57:21.720Z,90.80
2018-06-19T01:00:26.042Z,91.41
2018-06-19T01:03:30.349Z,91.73
2018-06-19T01:06:34.832Z,91.93
2018-06-19T01:09:39.184Z,92.97
2018-06-19T01:12:43.644Z,92.97
2018-06-19T01:15:47.978Z,92.75
2018-06-19T01:18:52.366Z,93.32
2018-06-19T01:21:56.690Z,93.43
2018-06-19T01:25:01.006Z,92.92
2018-06-19T01:28:05.300Z,92.67
2018-06-19T01:31:09.460Z,93.02
2018-06-19T01:34:13.844Z,92.56
2018-06-19T01:37:18.235Z,93.29
2018-06-19T01:40:22.560Z,92.64
2018-06-19T01:43:26.898Z,92.24
2018-06-19T01:46:31.046Z,92.51
2018-06-19T01:49:35.315Z,92.33
2018-06-19T01:52:39.603Z,92.32
2018-06-19T01:55:43.868Z,92.14
2018-06-19T01:58:48.216Z,91.57
2018-06-19T02:01:52.624Z,91.73
2018-06-19T02:04:57.119Z,91.75
2018-06-19T02:08:01.516Z,91.42
2018-06-19T02:11:05.892Z,91.41
2018-06-19T02:14:10.190Z,91.95
2018-06-19T02:17:14.384Z,92.40
2018-06-19T02:20:18.742Z,92.24
2018-06-19T02:23:23.957Z,92.49
2018-06-19T02:26:28.344Z,92.49
2018-06-19T02:29:32.735Z,92.31
2018-06-19T02:32:37.065Z,92.11
2018-06-19T02:35:41.364Z,91.89
2018-06-19T02:38:45.663Z,92.01
2018-06-19T02:41:50.217Z,92.12
2018-06-19T02:44:54.517Z,91.98
2018-06-19T02:47:58.816Z,93.10
2018-06-19T02:51:03.193Z,92.55
2018-06-19T02:54:07.453Z,92.38
2018-06-19T02:57:11.742Z,91.77
2018-06-19T03:00:16.033Z,91.72
2018-06-19T03:03:20.328Z,91.12
2018-06-19T03:06:24.646Z,91.29
2018-06-19T03:09:28.998Z,91.07
2018-06-19T03:12:33.264Z,90.96
2018-06-19T03:15:37.633Z,90.39
2018-06-19T03:18:41.940Z,89.83
2018-06-19T03:21:46.239Z,89.53
2018-06-19T03:24:50.521Z,89.12
2018-06-19T03:27:54.893Z,90.38
2018-06-19T03:30:58.997Z,89.23
2018-06-19T03:34:03.318Z,89.39
2018-06-19T03:37:07.620Z,89.98
2018-06-19T03:40:11.948Z,89.38
2018-06-19T03:43:16.302Z,88.25
2018-06-19T03:46:20.628Z,89.16
2018-06-19T03:49:24.920Z,89.54
2018-06-19T03:52:29.959Z,89.28
2018-06-19T03:55:34.273Z,89.35
2018-06-19T03:58:38.580Z,90.00
2018-06-19T04:01:42.913Z,89.51
2018-06-19T04:04:47.263Z,89.14
2018-06-19T04:07:51.719Z,88.94
2018-06-19T04:10:56.099Z,88.74
2018-06-19T04:14:00.397Z,89.14
2018-06-19T04:17:04.628Z,89.06
2018-06-19T04:20:08.926Z,89.17
2018-06-19T04:23:13.250Z,88.06
2018-06-19T04:26:17.615Z,87.89
2018-06-19T04:29:21.887Z,88.70
2018-06-19T04:32:26.257Z,87.73
2018-06-19T04:35:30.529Z,88.16
2018-06-19T04:38:34.821Z,87.83
2018-06-19T04:41:39.081Z,87.52
2018-06-19T04:44:43.455Z,87.96
2018-06-19T04:47:47.827Z,88.45
2018-06-19T04:50:52.169Z,88.49
2018-06-19T04:53:56.445Z,88.45
2018-06-19T04:57:00.799Z,88.08
2018-06-19T05:00:05.532Z,89.37
2018-06-19T05:03:09.821Z,88.74
2018-06-19T05:06:14.145Z,88.26
2018-06-19T05:09:18.506Z,88.13
2018-06-19T05:12:22.776Z,88.77
2018-06-19T05:15:27.373Z,88.59
2018-06-19T05:18:31.727Z,87.59
2018-06-19T05:21:36.091Z,87.81
2018-06-19T05:24:40.513Z,87.78
2018-06-19T05:27:44.824Z,88.04
2018-06-19T05:30:49.147Z,88.24
2018-06-19T05:33:53.441Z,87.41
2018-06-19T05:36:57.758Z,87.93
2018-06-19T05:40:02.122Z,87.50
2018-06-19T05:43:06.514Z,87.42
2018-06-19T05:46:10.914Z,87.04
2018-06-19T05:49:15.259Z,86.97
2018-06-19T05:52:19.550Z,85.95
2018-06-19T05:55:23.913Z,86.51
2018-06-19T05:58:28.202Z,85.31
2018-06-19T06:01:32.502Z,84.92
2018-06-19T06:04:36.785Z,85.26
2018-06-19T06:07:41.079Z,85.12
2018-06-19T06:10:45.418Z,84.60
2018-06-19T06:13:49.552Z,84.25
2018-06-19T06:16:53.834Z,84.01
2018-06-19T06:19:58.165Z,83.67
2018-06-19T06:23:02.450Z,83.96
2018-06-19T06:26:06.913Z,83.40
2018-06-19T06:29:11.277Z,83.00
2018-06-19T06:32:15.644Z,83.35
2018-06-19T06:35:20.104Z,81.86
2018-06-19T06:38:24.381Z,82.33
2018-06-19T06:41:28.759Z,82.00
2018-06-19T06:44:33.013Z,82.62
2018-06-19T06:47:37.497Z,82.15
2018-06-19T06:50:41.758Z,82.10
2018-06-19T06:53:46.139Z,79.89
2018-06-19T06:56:50.452Z,79.79
2018-06-19T06:59:54.791Z,79.63
2018-06-19T07:02:59.203Z,79.91
2018-06-19T07:06:03.624Z,78.96
2018-06-19T07:09:10.965Z,79.87
2018-06-19T07:12:15.441Z,79.41
2018-06-19T07:15:19.691Z,78.48
2018-06-19T07:18:24.084Z,79.05
2018-06-19T07:21:28.646Z,78.30
2018-06-19T07:24:33.055Z,78.13
2018-06-19T07:27:37.462Z,78.50
2018-06-19T07:30:41.820Z,77.76
2018-06-19T07:33:46.078Z,77.27
2018-06-19T07:36:50.442Z,77.64
2018-06-19T07:39:54.745Z,77.40
2018-06-19T07:43:03.140Z,77.91
2018-06-19T07:46:07.459Z,77.02
2018-06-19T07:49:11.809Z,77.22
2018-06-19T07:52:16.094Z,76.80
2018-06-19T07:55:20.454Z,77.84
2018-06-19T07:58:24.756Z,76.95
2018-06-19T08:01:29.098Z,76.52
2018-06-19T08:04:33.489Z,76.17
2018-06-19T08:07:37.820Z,74.46
2018-06-19T08:10:42.146Z,74.08
2018-06-19T08:13:46.605Z,74.11
2018-06-19T08:16:50.980Z,75.39
2018-06-19T08:19:55.343Z,75.16
2018-06-19T08:22:59.617Z,75.46
2018-06-19T08:26:03.982Z,76.78
2018-06-19T08:29:08.376Z,77.42
2018-06-19T08:32:12.669Z,78.03
2018-06-19T08:35:17.012Z,77.48
2018-06-19T08:38:21.364Z,78.40
2018-06-19T08:41:25.644Z,77.16
2018-06-19T08:44:30.005Z,74.87
2018-06-19T08:47:34.265Z,74.95
2018-06-19T08:50:38.645Z,74.01
2018-06-19T08:53:42.949Z,72.53
2018-06-19T08:56:47.324Z,71.55
2018-06-19T08:59:51.609Z,71.48
2018-06-19T09:02:55.929Z,71.52
2018-06-19T09:06:00.225Z,72.35
2018-06-19T09:09:06.558Z,73.04
2018-06-19T09:12:10.841Z,72.36
2018-06-19T09:15:15.195Z,72.71
2018-06-19T09:18:19.545Z,71.14
2018-06-19T09:21:23.892Z,70.10
2018-06-19T09:24:28.239Z,69.82
2018-06-19T09:27:32.560Z,70.70
2018-06-19T09:30:36.852Z,72.43
2018-06-19T09:33:41.194Z,72.79
2018-06-19T09:36:45.525Z,73.16
2018-06-19T09:39:49.927Z,72.98
2018-06-19T09:42:54.233Z,71.62
2018-06-19T09:45:58.558Z,72.18
2018-06-19T09:49:02.877Z,72.76
2018-06-19T09:52:07.518Z,72.35
2018-06-19T09:55:11.855Z,73.17
2018-06-19T09:58:16.181Z,71.51
2018-06-19T10:01:20.551Z,70.58
2018-06-19T10:04:24.874Z,69.54
2018-06-19T10:07:29.217Z,67.04
2018-06-19T10:10:33.582Z,63.96
2018-06-19T10:13:37.869Z,63.84
2018-06-19T10:16:42.246Z,61.93
2018-06-19T10:19:46.674Z,62.30
2018-06-19T10:22:51.233Z,62.33
2018-06-19T10:25:55.523Z,60.27
2018-06-19T10:29:00.263Z,59.21
2018-06-19T10:32:04.628Z,56.25
2018-06-19T10:35:08.936Z,56.11
2018-06-19T10:38:13.256Z,55.41
2018-06-19T10:41:17.592Z,56.26
2018-06-19T10:44:21.896Z,55.87
2018-06-19T10:47:26.272Z,54.20
2018-06-19T10:50:30.568Z,55.12
2018-06-19T10:53:34.904Z,53.26
2018-06-19T10:56:39.309Z,53.72
2018-06-19T10:59:43.822Z,54.74
2018-06-19T11:02:48.388Z,55.17
2018-06-19T11:05:52.784Z,54.82
2018-06-19T11:08:57.040Z,53.76
2018-06-19T11:12:01.401Z,54.40
2018-06-19T11:15:06.051Z,53.09
2018-06-19T11:18:10.478Z,53.50
2018-06-19T11:21:14.797Z,53.64
2018-06-19T11:24:19.116Z,52.68
2018-06-19T11:27:23.414Z,54.09
2018-06-19T11:30:27.720Z,52.01
2018-06-19T11:33:32.040Z,52.54
2018-06-19T11:36:36.506Z,53.51
2018-06-19T11:39:40.881Z,53.73
2018-06-19T11:42:45.503Z,53.50
2018-06-19T11:45:49.849Z,55.32
2018-06-19T11:48:54.182Z,54.20
2018-06-19T11:51:58.540Z,54.60
2018-06-19T11:55:03.003Z,54.07
2018-06-19T11:58:07.338Z,53.22
2018-06-19T12:01:11.715Z,55.15
2018-06-19T12:04:16.130Z,53.75
2018-06-19T12:07:20.421Z,54.78
2018-06-19T12:10:24.718Z,54.64
2018-06-19T12:13:29.154Z,54.16
2018-06-19T12:16:33.771Z,52.88
2018-06-19T12:19:38.129Z,52.09
2018-06-19T12:22:42.487Z,53.81
2018-06-19T12:25:46.814Z,53.05
2018-06-19T12:28:51.191Z,54.25
2018-06-19T12:31:55.660Z,53.64
2018-06-19T12:34:59.938Z,54.97
2018-06-19T12:38:04.307Z,56.29
2018-06-19T12:41:08.632Z,56.62
2018-06-19T12:44:13.194Z,54.08
2018-06-19T12:47:17.591Z,54.10
2018-06-19T12:50:41.528Z,53.39
2018-06-19T12:56:03.876Z,52.01
2018-06-19T12:59:08.231Z,50.40
2018-06-19T13:02:12.555Z,50.41
2018-06-19T13:05:34.001Z,48.81
2018-06-19T13:08:38.341Z,49.00
2018-06-19T13:11:42.739Z,49.42
2018-06-19T13:14:47.064Z,48.87
2018-06-19T13:19:12.277Z,48.44
2018-06-19T13:22:16.711Z,50.33
2018-06-19T13:25:21.159Z,50.01
2018-06-19T13:29:52.139Z,49.69
2018-06-19T13:32:56.437Z,49.29
2018-06-19T13:36:00.815Z,47.24
2018-06-19T13:39:06.335Z,47.27
2018-06-19T13:42:27.712Z,48.40
2018-06-19T13:45:32.115Z,46.98
2018-06-19T13:48:36.539Z,46.07
2018-06-19T13:51:40.803Z,45.70
2018-06-19T13:54:47.623Z,45.26
2018-06-19T13:58:21.377Z,45.70
2018-06-19T14:01:25.666Z,45.50
2018-06-19T14:04:30.167Z,45.04
2018-06-19T14:07:40.029Z,46.00
2018-06-19T14:11:01.626Z,46.34
2018-06-19T14:14:05.965Z,45.62
2018-06-19T14:17:10.244Z,45.93
2018-06-19T14:20:14.700Z,45.54
2018-06-19T14:23:19.001Z,46.21
2018-06-19T14:26:23.448Z,45.06
2018-06-19T14:29:27.714Z,45.53
2018-06-19T14:32:32.058Z,43.89
2018-06-19T14:35:36.386Z,47.07
2018-06-19T14:38:40.830Z,43.83
2018-06-19T14:41:45.140Z,45.15
2018-06-19T14:44:49.598Z,43.86
2018-06-19T14:47:53.857Z,46.12
2018-06-19T14:50:58.201Z,45.42
2018-06-19T14:54:02.511Z,47.23
2018-06-19T14:57:06.760Z,46.66
2018-06-19T15:00:11.698Z,45.47
2018-06-19T15:03:16.022Z,45.21
2018-06-19T15:06:20.293Z,46.19
2018-06-19T15:09:24.412Z,47.18
2018-06-19T15:12:28.784Z,45.68
2018-06-19T15:15:33.200Z,46.78
2018-06-19T15:18:37.558Z,46.61
2018-06-19T15:21:41.913Z,45.74
2018-06-19T15:24:46.202Z,45.57
2018-06-19T15:27:51.774Z,43.68
2018-06-19T15:30:56.112Z,43.72
2018-06-19T15:34:00.557Z,45.27
2018-06-19T15:37:04.851Z,43.88
2018-06-19T15:40:09.273Z,43.74
2018-06-19T15:43:13.538Z,44.65
2018-06-19T15:46:17.949Z,45.52
2018-06-19T15:49:22.323Z,44.40
2018-06-19T15:52:26.734Z,43.91
2018-06-19T15:55:31.180Z,43.28
2018-06-19T15:58:35.498Z,44.75
2018-06-19T16:01:39.913Z,44.46
2018-06-19T16:04:44.240Z,45.18
2018-06-19T16:07:53.920Z,43.61
2018-06-19T16:10:58.210Z,44.00
2018-06-19T16:14:02.505Z,42.17
2018-06-19T16:17:06.910Z,41.79
2018-06-19T16:20:11.275Z,43.32
2018-06-19T16:23:15.697Z,42.39
2018-06-19T16:26:19.981Z,42.10
2018-06-19T16:29:24.338Z,41.85
2018-06-19T16:32:28.599Z,42.13
2018-06-19T16:35:32.999Z,42.05
2018-06-19T16:38:37.369Z,41.77
2018-06-19T16:41:41.834Z,40.91
2018-06-19T16:44:46.127Z,41.96
2018-06-19T16:47:50.555Z,42.26
2018-06-19T16:50:54.872Z,41.92
2018-06-19T16:53:59.295Z,42.62
2018-06-19T16:57:03.632Z,43.07
2018-06-19T17:00:08.150Z,42.80
2018-06-19T17:03:12.456Z,41.45
2018-06-19T17:06:16.898Z,42.46
2018-06-19T17:09:21.308Z,41.96
2018-06-19T17:12:25.692Z,40.91
2018-06-19T17:15:30.018Z,41.63
2018-06-19T17:18:34.341Z,43.98
2018-06-19T17:21:38.715Z,46.06
2018-06-19T17:24:43.166Z,49.42
2018-06-19T17:27:47.528Z,51.20
2018-06-19T17:30:51.901Z,51.79
2018-06-19T17:33:56.525Z,52.00
2018-06-19T17:37:00.890Z,51.71
2018-06-19T17:40:05.414Z,52.57
2018-06-19T17:43:09.752Z,53.49
2018-06-19T17:46:14.126Z,54.92
2018-06-19T17:49:18.494Z,55.86
2018-06-19T17:52:22.960Z,55.86
2018-06-19T17:55:27.340Z,56.96
2018-06-19T17:58:31.724Z,58.33
2018-06-19T18:01:36.057Z,59.56
2018-06-19T18:04:40.369Z,60.14
2018-06-19T18:07:44.717Z,59.95
2018-06-19T18:10:49.134Z,60.24
2018-06-19T18:13:53.492Z,61.17
2018-06-19T18:16:57.827Z,62.57
2018-06-19T18:20:02.208Z,63.04
2018-06-19T18:23:06.530Z,62.64
2018-06-19T18:26:10.886Z,63.24
2018-06-19T18:29:15.221Z,62.91
2018-06-19T18:32:19.594Z,64.18
2018-06-19T18:35:23.871Z,62.78
2018-06-19T18:38:28.215Z,63.48
2018-06-19T18:41:32.520Z,63.78
2018-06-19T18:44:36.908Z,63.13
2018-06-19T18:47:41.335Z,63.68
2018-06-19T18:50:45.651Z,64.81
2018-06-19T18:53:50.105Z,65.38
2018-06-19T18:56:54.463Z,65.93
2018-06-19T18:59:58.981Z,66.50
2018-06-19T19:03:03.300Z,66.95
2018-06-19T19:06:07.713Z,66.91
2018-06-19T19:09:12.822Z,68.15
2018-06-19T19:12:17.466Z,67.83
2018-06-19T19:15:27.286Z,68.17
2018-06-19T19:18:36.889Z,67.94
2018-06-19T19:21:41.225Z,68.07
2018-06-19T19:24:45.522Z,67.57
2018-06-19T19:27:55.017Z,68.25
2018-06-19T19:30:59.580Z,69.05
2018-06-19T19:34:03.943Z,69.20
2018-06-19T19:37:13.428Z,68.51
2018-06-19T19:40:17.785Z,67.84
2018-06-19T19:43:22.221Z,67.98
2018-06-19T19:46:31.751Z,67.49
2018-06-19T19:49:36.121Z,67.92
2018-06-19T19:52:40.497Z,69.07
2018-06-19T19:55:50.145Z,69.34
2018-06-19T19:58:54.451Z,70.07
2018-06-19T20:01:58.860Z,70.79
2018-06-19T20:05:03.144Z,71.07
2018-06-19T20:08:07.497Z,71.37
2018-06-19T20:11:11.865Z,71.44
2018-06-19T20:14:16.161Z,71.92
2018-06-19T20:17:20.465Z,72.35
2018-06-19T20:20:24.832Z,72.14
2018-06-19T20:23:29.216Z,72.28
2018-06-19T20:26:33.562Z,72.87
2018-06-19T20:29:37.906Z,73.41
2018-06-19T20:32:42.199Z,73.10
2018-06-19T20:35:46.481Z,74.08
2018-06-19T20:38:50.835Z,73.65
2018-06-19T20:41:55.256Z,74.60
2018-06-19T20:44:59.924Z,74.40
2018-06-19T20:48:04.212Z,74.31
2018-06-19T20:51:08.831Z,73.77
2018-06-19T20:54:13.161Z,74.59
2018-06-19T20:57:17.565Z,74.23
2018-06-19T21:00:21.857Z,73.98
2018-06-19T21:03:26.424Z,74.79
2018-06-19T21:06:30.733Z,74.70
2018-06-19T21:09:35.180Z,74.72
2018-06-19T21:12:39.512Z,74.56
2018-06-19T21:15:43.753Z,74.54
2018-06-19T21:18:48.397Z,74.54
2018-06-19T21:21:52.749Z,74.47
2018-06-19T21:24:57.145Z,74.58
2018-06-19T21:28:01.441Z,74.97
2018-06-19T21:31:05.867Z,75.33
2018-06-19T21:34:10.139Z,76.16
2018-06-19T21:37:14.693Z,76.34
2018-06-19T21:40:18.960Z,76.80
2018-06-19T21:43:23.383Z,77.02
2018-06-19T21:46:27.720Z,78.21
2018-06-19T21:49:32.019Z,77.97
2018-06-19T21:52:36.297Z,77.90
2018-06-19T21:55:41.070Z,78.20
2018-06-19T21:58:45.740Z,78.17
2018-06-19T22:01:50.289Z,78.22
2018-06-19T22:04:54.636Z,77.85
2018-06-19T22:07:59.013Z,77.62
2018-06-19T22:11:03.440Z,77.20
2018-06-19T22:14:07.889Z,76.55
2018-06-19T22:17:12.384Z,76.38
2018-06-19T22:20:16.802Z,76.53
2018-06-19T22:23:21.093Z,76.39
2018-06-19T22:26:25.419Z,75.94
2018-06-19T22:29:29.670Z,76.07
2018-06-19T22:32:34.105Z,76.60
2018-06-19T22:35:38.625Z,76.36
2018-06-19T22:38:42.971Z,75.93
2018-06-19T22:41:47.349Z,76.17
2018-06-19T22:44:51.735Z,76.41
2018-06-19T22:47:56.310Z,76.13
2018-06-19T22:51:00.932Z,76.10
2018-06-19T22:54:06.331Z,75.77
2018-06-19T22:57:10.767Z,75.52
2018-06-19T23:00:16.228Z,75.61
2018-06-19T23:03:20.636Z,75.25
2018-06-19T23:06:24.944Z,75.31
2018-06-19T23:09:29.361Z,76.00
2018-06-19T23:12:33.658Z,74.91
2018-06-19T23:15:38.030Z,74.85
2018-06-19T23:18:42.416Z,75.30
2018-06-19T23:21:46.743Z,74.96
2018-06-19T23:24:51.078Z,75.18
2018-06-19T23:27:55.480Z,74.64
2018-06-19T23:30:59.816Z,75.06
2018-06-19T23:34:04.132Z,75.32
2018-06-19T23:37:08.493Z,75.50
2018-06-19T23:40:12.829Z,75.67
2018-06-19T23:43:16.899Z,75.95
2018-06-19T23:46:21.303Z,75.42
2018-06-19T23:49:25.682Z,75.02
2018-06-19T23:52:30.504Z,75.14
2018-06-19T23:55:34.787Z,76.14
2018-06-19T23:58:39.201Z,75.76
